sensor_id;sensor_type;location;lat;lon;timestamp;P1;durP1;ratioP1;P2;durP2;ratioP2
14736;SDS011;7459;53.590;10.062;2023-04-01T00:00:54;9.73;;;2.90;;
14736;SDS011;7459;53.590;10.062;2023-04-01T00:03:21;9.10;;;3.13;;
14736;SDS011;7459;53.590;10.062;2023-04-01T00:05:48;9.10;;;3.45;;
14736;SDS011;7459;53.590;10.062;2023-04-01T00:08:14;7.83;;;2.60;;
14736;SDS011;7459;53.590;10.062;2023-04-01T00:10:40;10.93;;;3.17;;
14736;SDS011;7459;53.590;10.062;2023-04-01T00:13:06;7.57;;;3.47;;
14736;SDS011;7459;53.590;10.062;2023-04-01T00:15:33;7.70;;;3.08;;
14736;SDS011;7459;53.590;10.062;2023-04-01T00:17:59;9.10;;;3.33;;
14736;SDS011;7459;53.590;10.062;2023-04-01T00:20:26;9.73;;;2.95;;
14736;SDS011;7459;53.590;10.062;2023-04-01T00:22:52;7.93;;;2.75;;
14736;SDS011;7459;53.590;10.062;2023-04-01T00:25:18;8.90;;;2.97;;
14736;SDS011;7459;53.590;10.062;2023-04-01T00:27:44;6.03;;;2.55;;
14736;SDS011;7459;53.590;10.062;2023-04-01T00:30:09;8.30;;;2.78;;
14736;SDS011;7459;53.590;10.062;2023-04-01T00:32:36;8.30;;;3.10;;
14736;SDS011;7459;53.590;10.062;2023-04-01T00:35:02;8.13;;;2.78;;
14736;SDS011;7459;53.590;10.062;2023-04-01T00:37:29;7.82;;;2.72;;
14736;SDS011;7459;53.590;10.062;2023-04-01T00:39:55;8.52;;;2.92;;
14736;SDS011;7459;53.590;10.062;2023-04-01T00:42:21;9.00;;;3.13;;
14736;SDS011;7459;53.590;10.062;2023-04-01T00:44:50;6.80;;;2.60;;
14736;SDS011;7459;53.590;10.062;2023-04-01T00:47:18;9.18;;;2.90;;
14736;SDS011;7459;53.590;10.062;2023-04-01T00:49:45;8.20;;;3.10;;
14736;SDS011;7459;53.590;10.062;2023-04-01T00:52:15;7.32;;;2.75;;
14736;SDS011;7459;53.590;10.062;2023-04-01T00:54:47;6.00;;;2.40;;
14736;SDS011;7459;53.590;10.062;2023-04-01T00:57:24;7.70;;;2.55;;
14736;SDS011;7459;53.590;10.062;2023-04-01T00:59:56;8.60;;;3.53;;
14736;SDS011;7459;53.590;10.062;2023-04-01T01:02:33;8.07;;;2.67;;
14736;SDS011;7459;53.590;10.062;2023-04-01T01:05:00;8.38;;;2.83;;
14736;SDS011;7459;53.590;10.062;2023-04-01T01:07:46;7.73;;;2.57;;
14736;SDS011;7459;53.590;10.062;2023-04-01T01:10:24;6.10;;;2.58;;
14736;SDS011;7459;53.590;10.062;2023-04-01T01:13:04;8.02;;;3.33;;
14736;SDS011;7459;53.590;10.062;2023-04-01T01:15:50;8.07;;;2.65;;
14736;SDS011;7459;53.590;10.062;2023-04-01T01:26:50;9.43;;;2.88;;
14736;SDS011;7459;53.590;10.062;2023-04-01T01:29:32;8.60;;;2.97;;
14736;SDS011;7459;53.590;10.062;2023-04-01T01:32:24;11.10;;;2.80;;
14736;SDS011;7459;53.590;10.062;2023-04-01T01:38:21;8.65;;;2.28;;
14736;SDS011;7459;53.590;10.062;2023-04-01T01:40:51;11.88;;;3.28;;
14736;SDS011;7459;53.590;10.062;2023-04-01T01:43:21;6.72;;;2.78;;
14736;SDS011;7459;53.590;10.062;2023-04-01T01:45:55;8.48;;;3.10;;
14736;SDS011;7459;53.590;10.062;2023-04-01T01:48:24;8.50;;;3.10;;
14736;SDS011;7459;53.590;10.062;2023-04-01T01:50:52;8.15;;;3.00;;
14736;SDS011;7459;53.590;10.062;2023-04-01T01:53:18;8.55;;;2.50;;
14736;SDS011;7459;53.590;10.062;2023-04-01T01:55:45;9.85;;;2.28;;
14736;SDS011;7459;53.590;10.062;2023-04-01T02:03:29;7.22;;;3.30;;
14736;SDS011;7459;53.590;10.062;2023-04-01T02:05:59;8.23;;;2.80;;
14736;SDS011;7459;53.590;10.062;2023-04-01T02:08:36;6.80;;;2.53;;
14736;SDS011;7459;53.590;10.062;2023-04-01T02:11:09;6.32;;;2.50;;
14736;SDS011;7459;53.590;10.062;2023-04-01T02:13:43;9.27;;;2.83;;
14736;SDS011;7459;53.590;10.062;2023-04-01T02:16:23;7.10;;;2.33;;
14736;SDS011;7459;53.590;10.062;2023-04-01T02:18:56;7.55;;;2.80;;
14736;SDS011;7459;53.590;10.062;2023-04-01T02:21:26;6.93;;;2.88;;
14736;SDS011;7459;53.590;10.062;2023-04-01T02:23:56;7.00;;;2.35;;
14736;SDS011;7459;53.590;10.062;2023-04-01T02:26:24;8.13;;;2.70;;
14736;SDS011;7459;53.590;10.062;2023-04-01T02:28:51;7.72;;;2.83;;
14736;SDS011;7459;53.590;10.062;2023-04-01T02:31:19;8.43;;;2.70;;
14736;SDS011;7459;53.590;10.062;2023-04-01T02:33:46;6.15;;;2.38;;
14736;SDS011;7459;53.590;10.062;2023-04-01T02:36:13;6.45;;;2.47;;
14736;SDS011;7459;53.590;10.062;2023-04-01T02:38:41;9.03;;;2.90;;
14736;SDS011;7459;53.590;10.062;2023-04-01T02:41:09;7.72;;;2.47;;
14736;SDS011;7459;53.590;10.062;2023-04-01T02:43:35;8.88;;;2.72;;
14736;SDS011;7459;53.590;10.062;2023-04-01T02:46:01;7.13;;;2.40;;
14736;SDS011;7459;53.590;10.062;2023-04-01T02:48:27;7.70;;;2.23;;
14736;SDS011;7459;53.590;10.062;2023-04-01T02:50:53;7.50;;;2.92;;
14736;SDS011;7459;53.590;10.062;2023-04-01T02:53:19;8.10;;;3.43;;
14736;SDS011;7459;53.590;10.062;2023-04-01T02:55:45;8.43;;;3.03;;
14736;SDS011;7459;53.590;10.062;2023-04-01T02:58:11;11.82;;;3.40;;
14736;SDS011;7459;53.590;10.062;2023-04-01T03:00:37;7.30;;;2.55;;
14736;SDS011;7459;53.590;10.062;2023-04-01T03:03:03;8.55;;;3.15;;
14736;SDS011;7459;53.590;10.062;2023-04-01T03:05:29;9.63;;;3.83;;
14736;SDS011;7459;53.590;10.062;2023-04-01T03:07:55;7.97;;;3.13;;
14736;SDS011;7459;53.590;10.062;2023-04-01T03:10:21;8.03;;;3.37;;
14736;SDS011;7459;53.590;10.062;2023-04-01T03:12:46;9.32;;;3.05;;
14736;SDS011;7459;53.590;10.062;2023-04-01T03:15:12;9.33;;;3.40;;
14736;SDS011;7459;53.590;10.062;2023-04-01T03:17:40;8.90;;;3.83;;
14736;SDS011;7459;53.590;10.062;2023-04-01T03:20:06;13.65;;;3.88;;
14736;SDS011;7459;53.590;10.062;2023-04-01T03:22:33;9.13;;;3.50;;
14736;SDS011;7459;53.590;10.062;2023-04-01T03:25:00;10.03;;;3.00;;
14736;SDS011;7459;53.590;10.062;2023-04-01T03:27:27;8.35;;;3.22;;
14736;SDS011;7459;53.590;10.062;2023-04-01T03:29:53;7.65;;;2.95;;
14736;SDS011;7459;53.590;10.062;2023-04-01T03:32:19;8.30;;;3.10;;
14736;SDS011;7459;53.590;10.062;2023-04-01T03:34:44;9.37;;;3.23;;
14736;SDS011;7459;53.590;10.062;2023-04-01T03:37:10;7.60;;;3.43;;
14736;SDS011;7459;53.590;10.062;2023-04-01T03:39:36;8.73;;;3.57;;
14736;SDS011;7459;53.590;10.062;2023-04-01T03:42:01;12.13;;;3.58;;
14736;SDS011;7459;53.590;10.062;2023-04-01T03:44:30;8.23;;;3.40;;
14736;SDS011;7459;53.590;10.062;2023-04-01T03:46:58;9.73;;;2.80;;
14736;SDS011;7459;53.590;10.062;2023-04-01T03:49:24;7.63;;;3.35;;
14736;SDS011;7459;53.590;10.062;2023-04-01T03:51:49;6.95;;;2.80;;
14736;SDS011;7459;53.590;10.062;2023-04-01T03:54:15;7.63;;;3.10;;
14736;SDS011;7459;53.590;10.062;2023-04-01T03:56:42;8.68;;;3.00;;
14736;SDS011;7459;53.590;10.062;2023-04-01T03:59:08;9.53;;;3.33;;
14736;SDS011;7459;53.590;10.062;2023-04-01T04:01:34;8.70;;;3.50;;
14736;SDS011;7459;53.590;10.062;2023-04-01T04:03:59;6.45;;;2.90;;
14736;SDS011;7459;53.590;10.062;2023-04-01T04:06:26;7.07;;;3.20;;
14736;SDS011;7459;53.590;10.062;2023-04-01T04:08:52;6.60;;;3.03;;
14736;SDS011;7459;53.590;10.062;2023-04-01T04:11:19;9.68;;;4.07;;
14736;SDS011;7459;53.590;10.062;2023-04-01T04:13:45;6.53;;;3.03;;
14736;SDS011;7459;53.590;10.062;2023-04-01T04:16:13;8.15;;;3.08;;
14736;SDS011;7459;53.590;10.062;2023-04-01T04:18:39;8.13;;;3.22;;
14736;SDS011;7459;53.590;10.062;2023-04-01T04:21:05;8.68;;;3.03;;
14736;SDS011;7459;53.590;10.062;2023-04-01T04:23:31;7.80;;;3.60;;
14736;SDS011;7459;53.590;10.062;2023-04-01T04:26:00;7.47;;;3.13;;
14736;SDS011;7459;53.590;10.062;2023-04-01T04:28:32;9.00;;;3.85;;
14736;SDS011;7459;53.590;10.062;2023-04-01T04:30:58;9.88;;;3.92;;
14736;SDS011;7459;53.590;10.062;2023-04-01T04:33:25;8.00;;;3.53;;
14736;SDS011;7459;53.590;10.062;2023-04-01T04:35:51;7.50;;;3.60;;
14736;SDS011;7459;53.590;10.062;2023-04-01T04:38:20;8.60;;;3.72;;
14736;SDS011;7459;53.590;10.062;2023-04-01T04:40:45;8.57;;;4.10;;
14736;SDS011;7459;53.590;10.062;2023-04-01T04:43:12;8.57;;;3.50;;
14736;SDS011;7459;53.590;10.062;2023-04-01T04:45:40;8.40;;;3.90;;
14736;SDS011;7459;53.590;10.062;2023-04-01T04:48:07;8.50;;;4.70;;
14736;SDS011;7459;53.590;10.062;2023-04-01T04:50:34;8.40;;;3.88;;
14736;SDS011;7459;53.590;10.062;2023-04-01T04:53:00;9.50;;;3.90;;
14736;SDS011;7459;53.590;10.062;2023-04-01T04:55:25;7.95;;;3.90;;
14736;SDS011;7459;53.590;10.062;2023-04-01T04:57:51;8.03;;;3.57;;
14736;SDS011;7459;53.590;10.062;2023-04-01T05:00:17;7.45;;;3.80;;
14736;SDS011;7459;53.590;10.062;2023-04-01T05:02:43;7.90;;;4.18;;
14736;SDS011;7459;53.590;10.062;2023-04-01T05:05:09;7.63;;;3.40;;
14736;SDS011;7459;53.590;10.062;2023-04-01T05:07:35;7.97;;;3.95;;
14736;SDS011;7459;53.590;10.062;2023-04-01T05:10:01;9.40;;;3.87;;
14736;SDS011;7459;53.590;10.062;2023-04-01T05:12:26;7.15;;;3.58;;
14736;SDS011;7459;53.590;10.062;2023-04-01T05:14:52;6.50;;;3.10;;
14736;SDS011;7459;53.590;10.062;2023-04-01T05:17:18;6.07;;;2.50;;
14736;SDS011;7459;53.590;10.062;2023-04-01T05:19:43;4.30;;;1.40;;
14736;SDS011;7459;53.590;10.062;2023-04-01T05:22:09;4.35;;;1.10;;
14736;SDS011;7459;53.590;10.062;2023-04-01T05:24:35;2.75;;;0.40;;
14736;SDS011;7459;53.590;10.062;2023-04-01T05:27:00;2.87;;;0.50;;
14736;SDS011;7459;53.590;10.062;2023-04-01T05:29:27;2.00;;;0.30;;
14736;SDS011;7459;53.590;10.062;2023-04-01T05:31:52;1.53;;;0.33;;
14736;SDS011;7459;53.590;10.062;2023-04-01T05:34:18;1.60;;;0.40;;
14736;SDS011;7459;53.590;10.062;2023-04-01T05:36:44;3.42;;;0.38;;
14736;SDS011;7459;53.590;10.062;2023-04-01T05:39:10;1.60;;;0.33;;
14736;SDS011;7459;53.590;10.062;2023-04-01T05:41:36;1.42;;;0.40;;
14736;SDS011;7459;53.590;10.062;2023-04-01T05:44:03;2.47;;;0.60;;
14736;SDS011;7459;53.590;10.062;2023-04-01T05:46:30;2.70;;;0.50;;
14736;SDS011;7459;53.590;10.062;2023-04-01T05:48:57;2.35;;;0.60;;
14736;SDS011;7459;53.590;10.062;2023-04-01T05:51:23;2.55;;;0.63;;
14736;SDS011;7459;53.590;10.062;2023-04-01T05:53:49;2.47;;;0.60;;
14736;SDS011;7459;53.590;10.062;2023-04-01T05:56:14;1.60;;;0.45;;
14736;SDS011;7459;53.590;10.062;2023-04-01T05:58:40;1.53;;;0.50;;
14736;SDS011;7459;53.590;10.062;2023-04-01T06:01:07;1.70;;;0.50;;
14736;SDS011;7459;53.590;10.062;2023-04-01T06:03:35;1.27;;;0.60;;
14736;SDS011;7459;53.590;10.062;2023-04-01T06:06:02;1.23;;;0.30;;
14736;SDS011;7459;53.590;10.062;2023-04-01T06:08:29;1.73;;;0.45;;
14736;SDS011;7459;53.590;10.062;2023-04-01T06:13:27;3.95;;;0.93;;
14736;SDS011;7459;53.590;10.062;2023-04-01T06:16:29;2.23;;;0.50;;
14736;SDS011;7459;53.590;10.062;2023-04-01T06:19:36;1.42;;;0.40;;
14736;SDS011;7459;53.590;10.062;2023-04-01T06:25:48;1.80;;;0.32;;
14736;SDS011;7459;53.590;10.062;2023-04-01T06:41:26;1.73;;;0.50;;
14736;SDS011;7459;53.590;10.062;2023-04-01T06:46:59;1.67;;;0.30;;
14736;SDS011;7459;53.590;10.062;2023-04-01T06:57:55;1.75;;;0.50;;
14736;SDS011;7459;53.590;10.062;2023-04-01T07:00:27;1.30;;;0.30;;
14736;SDS011;7459;53.590;10.062;2023-04-01T07:03:10;2.65;;;0.30;;
14736;SDS011;7459;53.590;10.062;2023-04-01T07:06:01;2.70;;;0.40;;
14736;SDS011;7459;53.590;10.062;2023-04-01T07:08:31;1.33;;;0.30;;
14736;SDS011;7459;53.590;10.062;2023-04-01T07:11:09;2.10;;;0.30;;
14736;SDS011;7459;53.590;10.062;2023-04-01T07:13:55;1.47;;;0.30;;
14736;SDS011;7459;53.590;10.062;2023-04-01T07:16:47;1.25;;;0.30;;
14736;SDS011;7459;53.590;10.062;2023-04-01T07:19:23;2.10;;;0.50;;
14736;SDS011;7459;53.590;10.062;2023-04-01T07:24:46;1.75;;;0.30;;
14736;SDS011;7459;53.590;10.062;2023-04-01T07:27:13;2.33;;;0.40;;
14736;SDS011;7459;53.590;10.062;2023-04-01T07:29:39;1.15;;;0.25;;
14736;SDS011;7459;53.590;10.062;2023-04-01T07:32:16;2.15;;;0.70;;
14736;SDS011;7459;53.590;10.062;2023-04-01T07:35:17;1.20;;;0.28;;
14736;SDS011;7459;53.590;10.062;2023-04-01T07:43:38;1.20;;;0.20;;
14736;SDS011;7459;53.590;10.062;2023-04-01T07:51:59;1.20;;;0.20;;
14736;SDS011;7459;53.590;10.062;2023-04-01T07:54:39;2.47;;;0.30;;
14736;SDS011;7459;53.590;10.062;2023-04-01T08:00:27;1.13;;;0.30;;
14736;SDS011;7459;53.590;10.062;2023-04-01T08:17:59;2.55;;;0.40;;
14736;SDS011;7459;53.590;10.062;2023-04-01T08:20:53;1.67;;;0.30;;
14736;SDS011;7459;53.590;10.062;2023-04-01T08:26:02;1.80;;;0.40;;
14736;SDS011;7459;53.590;10.062;2023-04-01T08:28:40;2.00;;;0.50;;
14736;SDS011;7459;53.590;10.062;2023-04-01T08:33:39;1.15;;;0.30;;
14736;SDS011;7459;53.590;10.062;2023-04-01T08:36:10;1.67;;;0.40;;
14736;SDS011;7459;53.590;10.062;2023-04-01T08:39:03;1.25;;;0.25;;
14736;SDS011;7459;53.590;10.062;2023-04-01T08:53:07;1.02;;;0.28;;
14736;SDS011;7459;53.590;10.062;2023-04-01T08:58:43;1.58;;;0.30;;
14736;SDS011;7459;53.590;10.062;2023-04-01T09:04:59;2.13;;;0.30;;
14736;SDS011;7459;53.590;10.062;2023-04-01T09:14:07;2.65;;;0.38;;
14736;SDS011;7459;53.590;10.062;2023-04-01T09:23:02;3.17;;;0.82;;
14736;SDS011;7459;53.590;10.062;2023-04-01T09:26:14;1.30;;;0.43;;
14736;SDS011;7459;53.590;10.062;2023-04-01T09:35:07;2.97;;;0.40;;
14736;SDS011;7459;53.590;10.062;2023-04-01T09:52:24;1.10;;;0.20;;
14736;SDS011;7459;53.590;10.062;2023-04-01T10:04:15;1.10;;;0.20;;
14736;SDS011;7459;53.590;10.062;2023-04-01T10:16:15;1.55;;;0.47;;
14736;SDS011;7459;53.590;10.062;2023-04-01T10:18:58;2.03;;;0.20;;
14736;SDS011;7459;53.590;10.062;2023-04-01T10:28:11;1.27;;;0.20;;
14736;SDS011;7459;53.590;10.062;2023-04-01T10:55:10;1.73;;;0.50;;
14736;SDS011;7459;53.590;10.062;2023-04-01T10:58:32;1.13;;;0.40;;
14736;SDS011;7459;53.590;10.062;2023-04-01T11:01:22;1.67;;;0.35;;
14736;SDS011;7459;53.590;10.062;2023-04-01T11:11:00;1.33;;;0.30;;
14736;SDS011;7459;53.590;10.062;2023-04-01T11:13:49;1.50;;;0.30;;
14736;SDS011;7459;53.590;10.062;2023-04-01T11:16:37;1.33;;;0.30;;
14736;SDS011;7459;53.590;10.062;2023-04-01T11:30:53;2.17;;;0.30;;
14736;SDS011;7459;53.590;10.062;2023-04-01T11:34:02;1.10;;;0.30;;
14736;SDS011;7459;53.590;10.062;2023-04-01T11:37:02;2.65;;;0.57;;
14736;SDS011;7459;53.590;10.062;2023-04-01T11:48:04;3.13;;;0.80;;
14736;SDS011;7459;53.590;10.062;2023-04-01T11:53:44;3.13;;;1.05;;
14736;SDS011;7459;53.590;10.062;2023-04-01T12:03:02;3.57;;;0.93;;
14736;SDS011;7459;53.590;10.062;2023-04-01T12:11:34;3.97;;;1.20;;
14736;SDS011;7459;53.590;10.062;2023-04-01T12:32:57;3.40;;;1.30;;
14736;SDS011;7459;53.590;10.062;2023-04-01T12:35:53;5.18;;;1.17;;
14736;SDS011;7459;53.590;10.062;2023-04-01T12:41:54;5.97;;;1.30;;
14736;SDS011;7459;53.590;10.062;2023-04-01T12:54:25;4.35;;;1.67;;
14736;SDS011;7459;53.590;10.062;2023-04-01T13:17:52;3.53;;;1.00;;
14736;SDS011;7459;53.590;10.062;2023-04-01T13:21:16;4.60;;;1.35;;
14736;SDS011;7459;53.590;10.062;2023-04-01T13:29:37;4.07;;;1.25;;
14736;SDS011;7459;53.590;10.062;2023-04-01T13:34:53;3.85;;;1.40;;
14736;SDS011;7459;53.590;10.062;2023-04-01T13:37:52;4.30;;;1.20;;
14736;SDS011;7459;53.590;10.062;2023-04-01T13:43:49;4.97;;;1.70;;
14736;SDS011;7459;53.590;10.062;2023-04-01T13:49:19;5.75;;;1.80;;
14736;SDS011;7459;53.590;10.062;2023-04-01T13:52:18;5.15;;;1.85;;
14736;SDS011;7459;53.590;10.062;2023-04-01T13:58:01;4.70;;;1.88;;
14736;SDS011;7459;53.590;10.062;2023-04-01T14:00:35;3.93;;;1.80;;
14736;SDS011;7459;53.590;10.062;2023-04-01T14:06:16;5.55;;;1.83;;
14736;SDS011;7459;53.590;10.062;2023-04-01T14:35:37;4.50;;;1.88;;
14736;SDS011;7459;53.590;10.062;2023-04-01T14:44:14;4.80;;;1.70;;
14736;SDS011;7459;53.590;10.062;2023-04-01T14:50:14;7.10;;;2.55;;
14736;SDS011;7459;53.590;10.062;2023-04-01T14:58:09;5.30;;;2.20;;
14736;SDS011;7459;53.590;10.062;2023-04-01T15:00:47;8.50;;;2.85;;
14736;SDS011;7459;53.590;10.062;2023-04-01T15:03:39;4.95;;;2.13;;
14736;SDS011;7459;53.590;10.062;2023-04-01T15:06:31;6.85;;;2.38;;
14736;SDS011;7459;53.590;10.062;2023-04-01T15:12:05;7.07;;;3.27;;
14736;SDS011;7459;53.590;10.062;2023-04-01T15:14:51;7.65;;;2.22;;
14736;SDS011;7459;53.590;10.062;2023-04-01T15:17:43;9.63;;;2.40;;
14736;SDS011;7459;53.590;10.062;2023-04-01T15:20:40;5.78;;;2.30;;
14736;SDS011;7459;53.590;10.062;2023-04-01T15:37:54;7.57;;;2.35;;
14736;SDS011;7459;53.590;10.062;2023-04-01T15:43:36;8.30;;;2.88;;
14736;SDS011;7459;53.590;10.062;2023-04-01T15:46:39;8.00;;;3.15;;
14736;SDS011;7459;53.590;10.062;2023-04-01T15:49:12;7.28;;;3.10;;
14736;SDS011;7459;53.590;10.062;2023-04-01T15:57:40;6.18;;;3.05;;
14736;SDS011;7459;53.590;10.062;2023-04-01T16:03:53;11.23;;;4.28;;
14736;SDS011;7459;53.590;10.062;2023-04-01T16:07:03;7.20;;;3.13;;
14736;SDS011;7459;53.590;10.062;2023-04-01T16:15:57;7.25;;;2.20;;
14736;SDS011;7459;53.590;10.062;2023-04-01T16:19:07;7.10;;;2.55;;
14736;SDS011;7459;53.590;10.062;2023-04-01T16:28:21;6.57;;;2.33;;
14736;SDS011;7459;53.590;10.062;2023-04-01T16:31:15;6.43;;;2.50;;
14736;SDS011;7459;53.590;10.062;2023-04-01T16:33:57;7.93;;;2.35;;
14736;SDS011;7459;53.590;10.062;2023-04-01T16:36:45;8.48;;;3.15;;
14736;SDS011;7459;53.590;10.062;2023-04-01T16:39:19;8.37;;;3.10;;
14736;SDS011;7459;53.590;10.062;2023-04-01T16:41:57;6.75;;;3.10;;
14736;SDS011;7459;53.590;10.062;2023-04-01T16:44:31;8.68;;;3.22;;
14736;SDS011;7459;53.590;10.062;2023-04-01T16:47:31;9.15;;;2.67;;
14736;SDS011;7459;53.590;10.062;2023-04-01T16:50:13;8.73;;;4.00;;
14736;SDS011;7459;53.590;10.062;2023-04-01T16:55:24;6.93;;;2.65;;
14736;SDS011;7459;53.590;10.062;2023-04-01T16:58:36;9.15;;;3.17;;
14736;SDS011;7459;53.590;10.062;2023-04-01T17:01:27;9.68;;;3.15;;
14736;SDS011;7459;53.590;10.062;2023-04-01T17:10:34;6.97;;;2.58;;
14736;SDS011;7459;53.590;10.062;2023-04-01T17:13:19;8.18;;;2.28;;
14736;SDS011;7459;53.590;10.062;2023-04-01T17:16:07;7.07;;;2.80;;
14736;SDS011;7459;53.590;10.062;2023-04-01T17:25:30;6.15;;;2.25;;
14736;SDS011;7459;53.590;10.062;2023-04-01T17:28:24;4.47;;;1.95;;
14736;SDS011;7459;53.590;10.062;2023-04-01T17:31:06;7.05;;;2.47;;
14736;SDS011;7459;53.590;10.062;2023-04-01T17:37:09;5.77;;;2.23;;
14736;SDS011;7459;53.590;10.062;2023-04-01T17:39:44;9.05;;;2.47;;
14736;SDS011;7459;53.590;10.062;2023-04-01T17:45:30;5.75;;;2.03;;
14736;SDS011;7459;53.590;10.062;2023-04-01T17:51:16;5.63;;;2.00;;
14736;SDS011;7459;53.590;10.062;2023-04-01T18:06:01;3.80;;;1.40;;
14736;SDS011;7459;53.590;10.062;2023-04-01T18:08:44;5.97;;;1.85;;
14736;SDS011;7459;53.590;10.062;2023-04-01T18:17:27;5.53;;;2.05;;
14736;SDS011;7459;53.590;10.062;2023-04-01T18:23:03;3.72;;;1.30;;
14736;SDS011;7459;53.590;10.062;2023-04-01T18:26:20;4.45;;;1.92;;
14736;SDS011;7459;53.590;10.062;2023-04-01T18:28:59;4.90;;;1.75;;
14736;SDS011;7459;53.590;10.062;2023-04-01T18:31:48;5.65;;;1.55;;
14736;SDS011;7459;53.590;10.062;2023-04-01T18:34:29;4.40;;;1.73;;
14736;SDS011;7459;53.590;10.062;2023-04-01T18:37:33;4.97;;;1.70;;
14736;SDS011;7459;53.590;10.062;2023-04-01T18:43:00;6.80;;;2.17;;
14736;SDS011;7459;53.590;10.062;2023-04-01T18:54:02;5.88;;;2.08;;
14736;SDS011;7459;53.590;10.062;2023-04-01T18:56:38;7.90;;;2.42;;
14736;SDS011;7459;53.590;10.062;2023-04-01T18:59:27;7.00;;;2.33;;
14736;SDS011;7459;53.590;10.062;2023-04-01T19:07:47;6.70;;;1.88;;
14736;SDS011;7459;53.590;10.062;2023-04-01T19:13:18;5.78;;;2.47;;
14736;SDS011;7459;53.590;10.062;2023-04-01T19:16:05;5.33;;;1.73;;
14736;SDS011;7459;53.590;10.062;2023-04-01T19:18:51;8.02;;;2.17;;
14736;SDS011;7459;53.590;10.062;2023-04-01T19:21:40;6.68;;;2.17;;
14736;SDS011;7459;53.590;10.062;2023-04-01T19:30:17;6.33;;;2.20;;
14736;SDS011;7459;53.590;10.062;2023-04-01T19:35:57;4.95;;;2.30;;
14736;SDS011;7459;53.590;10.062;2023-04-01T19:41:33;4.30;;;2.22;;
14736;SDS011;7459;53.590;10.062;2023-04-01T19:44:22;7.30;;;2.07;;
14736;SDS011;7459;53.590;10.062;2023-04-01T19:52:45;7.55;;;2.40;;
14736;SDS011;7459;53.590;10.062;2023-04-01T20:01:03;4.68;;;1.90;;
14736;SDS011;7459;53.590;10.062;2023-04-01T20:03:48;9.93;;;2.00;;
14736;SDS011;7459;53.590;10.062;2023-04-01T20:06:35;4.80;;;1.52;;
14736;SDS011;7459;53.590;10.062;2023-04-01T20:15:00;8.90;;;1.77;;
14736;SDS011;7459;53.590;10.062;2023-04-01T20:17:38;7.53;;;2.13;;
14736;SDS011;7459;53.590;10.062;2023-04-01T20:25:15;6.63;;;1.80;;
14736;SDS011;7459;53.590;10.062;2023-04-01T20:27:49;6.25;;;1.70;;
14736;SDS011;7459;53.590;10.062;2023-04-01T20:30:32;5.15;;;2.15;;
14736;SDS011;7459;53.590;10.062;2023-04-01T20:33:18;5.45;;;1.60;;
14736;SDS011;7459;53.590;10.062;2023-04-01T20:39:10;5.83;;;1.70;;
14736;SDS011;7459;53.590;10.062;2023-04-01T20:41:55;8.68;;;1.50;;
14736;SDS011;7459;53.590;10.062;2023-04-01T20:51:05;5.40;;;1.40;;
14736;SDS011;7459;53.590;10.062;2023-04-01T20:53:43;5.17;;;1.27;;
14736;SDS011;7459;53.590;10.062;2023-04-01T20:56:47;5.20;;;1.73;;
14736;SDS011;7459;53.590;10.062;2023-04-01T21:08:24;4.60;;;1.83;;
14736;SDS011;7459;53.590;10.062;2023-04-01T21:11:10;4.32;;;1.25;;
14736;SDS011;7459;53.590;10.062;2023-04-01T21:14:24;3.72;;;1.92;;
14736;SDS011;7459;53.590;10.062;2023-04-01T21:20:24;4.80;;;1.52;;
14736;SDS011;7459;53.590;10.062;2023-04-01T21:26:08;8.60;;;1.70;;
14736;SDS011;7459;53.590;10.062;2023-04-01T21:35:01;8.35;;;1.90;;
14736;SDS011;7459;53.590;10.062;2023-04-01T22:04:27;4.95;;;1.42;;
14736;SDS011;7459;53.590;10.062;2023-04-01T22:07:14;4.87;;;1.40;;
14736;SDS011;7459;53.590;10.062;2023-04-01T22:12:51;3.67;;;1.10;;
14736;SDS011;7459;53.590;10.062;2023-04-01T22:18:33;4.18;;;0.90;;
14736;SDS011;7459;53.590;10.062;2023-04-01T22:21:20;5.40;;;1.30;;
14736;SDS011;7459;53.590;10.062;2023-04-01T22:26:43;4.70;;;1.52;;
14736;SDS011;7459;53.590;10.062;2023-04-01T22:29:13;4.93;;;0.93;;
14736;SDS011;7459;53.590;10.062;2023-04-01T22:32:24;3.90;;;1.15;;
14736;SDS011;7459;53.590;10.062;2023-04-01T22:35:03;8.03;;;1.10;;
14736;SDS011;7459;53.590;10.062;2023-04-01T22:40:47;7.75;;;1.05;;
14736;SDS011;7459;53.590;10.062;2023-04-01T22:43:37;5.47;;;1.10;;
14736;SDS011;7459;53.590;10.062;2023-04-01T22:49:50;4.23;;;1.00;;
14736;SDS011;7459;53.590;10.062;2023-04-01T22:52:35;7.30;;;1.20;;
14736;SDS011;7459;53.590;10.062;2023-04-01T22:55:17;3.78;;;1.17;;
14736;SDS011;7459;53.590;10.062;2023-04-01T22:57:51;9.10;;;1.00;;
14736;SDS011;7459;53.590;10.062;2023-04-01T23:00:30;7.55;;;1.52;;
14736;SDS011;7459;53.590;10.062;2023-04-01T23:14:28;4.68;;;1.10;;
14736;SDS011;7459;53.590;10.062;2023-04-01T23:29:23;4.10;;;0.98;;
14736;SDS011;7459;53.590;10.062;2023-04-01T23:32:00;6.40;;;1.07;;
14736;SDS011;7459;53.590;10.062;2023-04-01T23:34:32;5.18;;;0.98;;
14736;SDS011;7459;53.590;10.062;2023-04-01T23:37:10;4.07;;;1.08;;
14736;SDS011;7459;53.590;10.062;2023-04-01T23:39:41;3.45;;;0.70;;
14736;SDS011;7459;53.590;10.062;2023-04-01T23:42:18;4.20;;;0.82;;
14736;SDS011;7459;53.590;10.062;2023-04-01T23:44:57;7.83;;;1.23;;
14736;SDS011;7459;53.590;10.062;2023-04-01T23:47:31;3.83;;;0.63;;
14736;SDS011;7459;53.590;10.062;2023-04-01T23:50:07;3.13;;;0.60;;
14736;SDS011;7459;53.590;10.062;2023-04-01T23:52:43;4.45;;;0.68;;
14736;SDS011;7459;53.590;10.062;2023-04-01T23:55:14;3.42;;;0.82;;
